Time;durP1;ratioP1;P1;durP2;ratioP2;P2;SDS_P1;SDS_P2;PMS_P1;PMS_P2;Temp;Humidity;BMP_temperature;BMP_pressure;BME280_temperature;BME280_humidity;BME280_pressure;Samples;Min_cycle;Max_cycle;Signal;HPM_P1;HPM_P2
2022/05/20 00:01:27;;;;;;;;;;;;;;;21.41;29.84;98832.81;5017547;28;893;-76
2022/05/20 00:03:52;;;;;;;;;;;;;;;21.72;30.03;98825.91;5017895;28;997;-76
2022/05/20 00:06:18;;;;;;;;;;;;;;;21.91;29.44;98821.56;5017959;28;899;-76
2022/05/20 00:08:44;;;;;;;;;;;;;;;22.14;29.39;98823.69;5017727;28;884;-76
2022/05/20 00:11:09;;;;;;;;;;;;;;;21.82;29.23;98812.81;5017201;28;1910;-76
2022/05/20 00:13:35;;;;;;;;;;;;;;;21.78;29.29;98829.88;4998678;28;1108;-76
2022/05/20 00:16:00;;;;;;;;;;;;;;;21.49;29.57;98820.16;5017653;28;925;-76
2022/05/20 00:18:26;;;;;;;;;;;;;;;21.46;29.71;98826.69;5017358;28;957;-76
2022/05/20 00:20:51;;;;;;;;;;;;;;;21.39;30.41;98821.09;5017349;28;969;-76
2022/05/20 00:23:17;;;;;;;;;;;;;;;21.47;29.83;98822.63;5017539;28;928;-76
2022/05/20 00:25:48;;;;;;;;;;;;;;;21.41;29.90;98821.50;5017163;28;954;-76
2022/05/20 00:28:15;;;;;;;;;;;;;;;21.46;30.05;98829.50;5015399;28;1018;-76
2022/05/20 00:30:41;;;;;;;;;;;;;;;21.72;29.83;98825.91;5017191;28;1915;-76
2022/05/20 00:33:06;;;;;;;;;;;;;;;22.02;29.38;98824.25;5017581;28;1016;-75
2022/05/20 00:35:32;;;;;;;;;;;;;;;22.03;29.04;98823.03;5017375;28;931;-76
2022/05/20 00:37:57;;;;;;;;;;;;;;;21.75;29.22;98819.38;5016996;28;881;-75
2022/05/20 00:40:23;;;;;;;;;;;;;;;21.53;29.51;98818.06;5014920;28;1037;-75
2022/05/20 00:42:49;;;;;;;;;;;;;;;21.50;29.49;98818.91;5014636;28;1187;-76
2022/05/20 00:45:14;;;;;;;;;;;;;;;21.77;29.73;98807.63;5016953;28;943;-76
2022/05/20 00:47:41;;;;;;;;;;;;;;;22.14;28.93;98817.22;5032206;28;951;-76
2022/05/20 00:50:09;;;;;;;;;;;;;;;21.93;28.94;98807.00;5014697;28;989;-76
2022/05/20 00:52:35;;;;;;;;;;;;;;;21.71;29.08;98812.97;4956392;29;1987;-76
2022/05/20 00:55:02;;;;;;;;;;;;;;;21.61;29.06;98819.59;4956181;29;917;-76
2022/05/20 00:57:28;;;;;;;;;;;;;;;21.46;29.38;98818.97;4956279;29;962;-76
2022/05/20 00:59:55;;;;;;;;;;;;;;;21.51;29.86;98812.84;4956010;29;975;-76
2022/05/20 01:02:21;;;;;;;;;;;;;;;21.74;29.80;98829.09;4936657;29;1083;-76
2022/05/20 01:04:46;;;;;;;;;;;;;;;22.15;28.92;98825.28;4917399;29;1003;-75
2022/05/20 01:07:12;;;;;;;;;;;;;;;21.87;29.39;98822.88;4918240;29;1040;-75
2022/05/20 01:09:38;;;;;;;;;;;;;;;21.69;29.65;98826.75;4917354;29;991;-76
2022/05/20 01:12:03;;;;;;;;;;;;;;;21.57;29.45;98824.50;4917882;29;1980;-75
2022/05/20 01:14:29;;;;;;;;;;;;;;;21.68;29.55;98825.16;4917954;29;933;-76
2022/05/20 01:16:54;;;;;;;;;;;;;;;21.65;29.52;98826.00;4917905;29;1011;-76
2022/05/20 01:19:23;;;;;;;;;;;;;;;21.54;29.77;98823.31;4917592;29;1079;-76
2022/05/20 01:21:48;;;;;;;;;;;;;;;21.66;29.90;98821.97;4917601;29;947;-76
2022/05/20 01:24:14;;;;;;;;;;;;;;;22.11;28.96;98824.53;4917337;29;1298;-76
2022/05/20 01:26:39;;;;;;;;;;;;;;;21.78;29.40;98824.19;4917743;29;1053;-76
2022/05/20 01:29:05;;;;;;;;;;;;;;;21.55;29.56;98826.94;4924369;28;936;-76
2022/05/20 01:31:30;;;;;;;;;;;;;;;21.58;29.23;98831.75;4959079;28;1973;-75
2022/05/20 01:33:56;;;;;;;;;;;;;;;21.63;29.51;98827.66;4975160;28;1011;-76
2022/05/20 01:36:23;;;;;;;;;;;;;;;21.49;29.53;98828.63;4989713;28;983;-76
2022/05/20 01:38:48;;;;;;;;;;;;;;;21.44;29.87;98826.28;4996431;28;941;-76
2022/05/20 01:41:15;;;;;;;;;;;;;;;21.44;29.95;98815.75;5016436;28;1187;-76
2022/05/20 01:43:49;;;;;;;;;;;;;;;21.62;30.23;98826.84;5016319;28;927;-75
2022/05/20 01:46:18;;;;;;;;;;;;;;;21.93;29.30;98824.81;5016305;28;859;-76
2022/05/20 01:48:49;;;;;;;;;;;;;;;22.03;29.05;98818.16;5015892;28;929;-76
2022/05/20 01:51:15;;;;;;;;;;;;;;;21.71;29.34;98821.47;5016293;28;1906;-76
2022/05/20 01:53:42;;;;;;;;;;;;;;;21.52;29.61;98810.81;5013341;28;1019;-76
2022/05/20 01:56:23;;;;;;;;;;;;;;;21.33;29.88;98809.44;5013736;28;944;-76
2022/05/20 01:59:01;;;;;;;;;;;;;;;21.56;29.55;98817.25;5013711;28;990;-76
2022/05/20 02:01:29;;;;;;;;;;;;;;;21.71;30.09;98818.66;5013819;28;990;-76
2022/05/20 02:03:56;;;;;;;;;;;;;;;21.99;29.29;98816.63;5014308;28;978;-76
2022/05/20 02:06:21;;;;;;;;;;;;;;;22.13;28.66;98804.28;4955220;29;1092;-76
2022/05/20 02:08:51;;;;;;;;;;;;;;;21.80;29.04;98804.72;4955093;29;1106;-76
2022/05/20 02:11:25;;;;;;;;;;;;;;;21.76;29.31;98818.16;4955302;29;1915;-76
2022/05/20 02:14:04;;;;;;;;;;;;;;;21.64;29.30;98815.91;4936047;29;956;-76
2022/05/20 02:16:33;;;;;;;;;;;;;;;21.88;29.57;98810.31;4935752;29;978;-76
2022/05/20 02:19:04;;;;;;;;;;;;;;;22.02;29.33;98818.56;4916562;29;988;-76
2022/05/20 02:21:30;;;;;;;;;;;;;;;22.18;28.72;98818.78;4901347;29;1004;-76
2022/05/20 02:23:57;;;;;;;;;;;;;;;21.74;29.06;98817.78;4901102;29;1129;-76
2022/05/20 02:26:26;;;;;;;;;;;;;;;21.71;29.11;98815.81;4901686;29;1050;-76
2022/05/20 02:28:54;;;;;;;;;;;;;;;21.68;29.23;98819.50;4860738;29;977;-76
2022/05/20 02:31:22;;;;;;;;;;;;;;;21.65;29.05;98809.00;4787873;30;1979;-76
2022/05/20 02:33:47;;;;;;;;;;;;;;;21.53;29.52;98812.41;4773159;30;961;-76
2022/05/20 02:36:17;;;;;;;;;;;;;;;21.54;29.85;98814.00;4790464;29;1029;-76
2022/05/20 02:38:42;;;;;;;;;;;;;;;21.43;29.74;98807.69;4755102;30;997;-76
2022/05/20 02:41:08;;;;;;;;;;;;;;;21.52;29.64;98805.16;4759487;30;1231;-76
2022/05/20 02:43:33;;;;;;;;;;;;;;;21.49;30.05;98811.66;4775908;29;1331;-76
2022/05/20 02:45:59;;;;;;;;;;;;;;;21.82;29.70;98802.28;4801361;29;1255;-76
2022/05/20 02:48:25;;;;;;;;;;;;;;;22.04;29.48;98797.09;4814131;29;1226;-76
2022/05/20 02:50:50;;;;;;;;;;;;;;;21.96;29.22;98806.13;4849440;29;1990;-77
2022/05/20 02:53:16;;;;;;;;;;;;;;;21.61;29.67;98811.09;4860874;29;1535;-76
2022/05/20 02:55:41;;;;;;;;;;;;;;;21.57;29.47;98813.19;4864136;29;1020;-76
2022/05/20 02:58:06;;;;;;;;;;;;;;;21.42;30.00;98806.09;4845142;29;982;-76
2022/05/20 03:06:00;;;;;;;;;;;;;;;22.03;29.36;98806.03;4898564;29;1307;-77
2022/05/20 03:08:25;;;;;;;;;;;;;;;21.63;29.89;98811.47;4907269;29;1339;-76
2022/05/20 03:10:51;;;;;;;;;;;;;;;21.55;29.68;98815.63;4975339;28;1898;-76
2022/05/20 03:13:16;;;;;;;;;;;;;;;21.49;29.73;98811.66;4976664;28;1358;-77
2022/05/20 03:15:42;;;;;;;;;;;;;;;21.71;29.37;98812.97;4977097;28;1302;-76
2022/05/20 03:18:08;;;;;;;;;;;;;;;21.76;29.62;98821.00;4957158;29;1306;-76
2022/05/20 03:20:33;;;;;;;;;;;;;;;21.98;29.51;98812.19;4957456;29;1307;-76
2022/05/20 03:22:58;;;;;;;;;;;;;;;21.87;29.23;98808.72;4957489;29;1272;-76
2022/05/20 03:25:24;;;;;;;;;;;;;;;21.67;29.49;98809.41;4938352;29;1239;-76
2022/05/20 03:27:50;;;;;;;;;;;;;;;21.57;29.23;98810.34;4938582;29;964;-76
2022/05/20 03:30:15;;;;;;;;;;;;;;;21.73;29.17;98809.72;4994726;28;1145;-76
2022/05/20 03:32:41;;;;;;;;;;;;;;;21.70;29.30;98811.34;4996038;28;1983;-76
2022/05/20 03:35:07;;;;;;;;;;;;;;;21.41;29.87;98815.81;4995735;28;1219;-76
2022/05/20 03:37:32;;;;;;;;;;;;;;;21.44;29.92;98809.28;4976248;28;1196;-77
2022/05/20 03:39:58;;;;;;;;;;;;;;;21.78;29.69;98806.41;4938031;29;985;-76
2022/05/20 03:42:23;;;;;;;;;;;;;;;22.19;28.91;98820.38;4938277;29;1226;-76
2022/05/20 03:44:49;;;;;;;;;;;;;;;21.63;29.61;98814.28;4938334;29;1003;-76
2022/05/20 03:47:14;;;;;;;;;;;;;;;21.67;29.53;98820.72;4937384;29;965;-77
2022/05/20 03:49:40;;;;;;;;;;;;;;;21.54;29.52;98814.00;4938093;29;969;-77
2022/05/20 03:52:06;;;;;;;;;;;;;;;21.41;29.76;98804.50;4938344;29;1903;-76
2022/05/20 03:54:34;;;;;;;;;;;;;;;21.77;29.81;98821.81;4938124;29;980;-77
2022/05/20 03:57:00;;;;;;;;;;;;;;;22.10;29.20;98814.41;4952846;28;957;-76
2022/05/20 03:59:26;;;;;;;;;;;;;;;22.12;28.80;98820.47;4918595;29;1032;-76
2022/05/20 04:01:57;;;;;;;;;;;;;;;21.67;29.47;98823.56;4918883;29;1025;-76
2022/05/20 04:04:32;;;;;;;;;;;;;;;21.64;29.71;98824.41;4887898;29;1163;-76
2022/05/20 04:06:58;;;;;;;;;;;;;;;21.56;29.50;98828.56;4918963;29;997;-76
2022/05/20 04:09:23;;;;;;;;;;;;;;;21.50;29.55;98827.41;4918792;29;924;-76
2022/05/20 04:11:49;;;;;;;;;;;;;;;21.37;30.05;98829.22;4951667;29;1903;-76
2022/05/20 04:14:15;;;;;;;;;;;;;;;21.43;30.27;98824.69;4944792;28;1136;-76
2022/05/20 04:16:40;;;;;;;;;;;;;;;21.79;30.25;98834.28;4976346;28;970;-76
2022/05/20 04:19:06;;;;;;;;;;;;;;;22.04;29.62;98824.63;4959771;28;954;-77
2022/05/20 04:21:31;;;;;;;;;;;;;;;21.62;30.12;98826.84;4975862;28;998;-76
2022/05/20 04:23:57;;;;;;;;;;;;;;;21.70;29.92;98827.56;4956335;29;1000;-76
2022/05/20 04:26:22;;;;;;;;;;;;;;;21.64;29.83;98835.72;4957089;29;999;-77
2022/05/20 04:28:47;;;;;;;;;;;;;;;21.58;29.95;98820.44;4956300;29;960;-76
2022/05/20 04:31:13;;;;;;;;;;;;;;;21.50;30.26;98824.56;5005115;28;1899;-76
2022/05/20 04:33:38;;;;;;;;;;;;;;;21.25;30.38;98837.00;5014786;28;1112;-76
2022/05/20 04:36:05;;;;;;;;;;;;;;;21.43;30.22;98830.34;5014839;28;1119;-76
2022/05/20 04:38:30;;;;;;;;;;;;;;;21.54;30.15;98836.66;5014925;28;1075;-76
2022/05/20 04:49:09;;;;;;;;;;;;;;;21.95;29.94;98832.88;5014493;28;975;-76
2022/05/20 04:51:34;;;;;;;;;;;;;;;22.23;29.50;98832.47;5015027;28;2024;-77
2022/05/20 04:56:43;;;;;;;;;;;;;;;21.74;30.05;98831.13;4994949;28;950;-77
2022/05/20 04:59:09;;;;;;;;;;;;;;;21.61;30.44;98830.13;4994569;28;986;-76
2022/05/20 05:01:34;;;;;;;;;;;;;;;21.75;29.86;98844.06;4994993;28;991;-76
2022/05/20 05:04:00;;;;;;;;;;;;;;;21.48;30.24;98827.03;4994663;28;1061;-77
2022/05/20 05:06:25;;;;;;;;;;;;;;;21.35;30.30;98834.47;4995059;28;959;-76
2022/05/20 05:08:51;;;;;;;;;;;;;;;21.42;30.15;98831.56;4994561;28;1064;-76
2022/05/20 05:11:16;;;;;;;;;;;;;;;21.45;30.35;98844.88;4995053;28;1962;-76
2022/05/20 05:13:41;;;;;;;;;;;;;;;21.39;30.36;98846.56;4994394;28;1064;-76
2022/05/20 05:16:07;;;;;;;;;;;;;;;21.39;30.22;98840.91;4995173;28;987;-76
2022/05/20 05:18:32;;;;;;;;;;;;;;;21.35;30.45;98852.28;4994314;28;1108;-76
2022/05/20 05:20:59;;;;;;;;;;;;;;;21.93;29.76;98852.34;4994524;28;994;-76
2022/05/20 05:23:25;;;;;;;;;;;;;;;22.20;29.21;98853.16;4994516;28;969;-76
2022/05/20 05:25:50;;;;;;;;;;;;;;;21.84;29.51;98856.50;4991725;28;973;-76
2022/05/20 05:28:16;;;;;;;;;;;;;;;21.67;29.76;98863.22;4994146;28;1059;-77
2022/05/20 05:30:44;;;;;;;;;;;;;;;21.60;29.78;98857.63;4994567;28;1058;-76
2022/05/20 05:33:10;;;;;;;;;;;;;;;21.40;29.96;98860.31;4994276;28;988;-76
2022/05/20 05:35:35;;;;;;;;;;;;;;;21.51;30.03;98865.84;4994437;28;985;-76
2022/05/20 05:38:00;;;;;;;;;;;;;;;21.39;30.03;98858.69;4994398;28;1030;-77
2022/05/20 05:40:27;;;;;;;;;;;;;;;21.61;30.30;98859.25;4994368;28;1137;-76
2022/05/20 05:42:55;;;;;;;;;;;;;;;21.87;29.92;98868.22;4994140;28;1046;-76
2022/05/20 05:45:21;;;;;;;;;;;;;;;21.96;29.46;98859.97;4994289;28;1022;-76
2022/05/20 05:47:47;;;;;;;;;;;;;;;21.72;29.89;98862.75;4994487;28;963;-76
2022/05/20 05:50:13;;;;;;;;;;;;;;;21.48;30.25;98856.16;4994500;28;934;-76
2022/05/20 05:52:38;;;;;;;;;;;;;;;21.45;30.14;98850.53;4994317;28;1918;-76
2022/05/20 05:55:04;;;;;;;;;;;;;;;21.47;30.00;98850.94;4994421;28;1019;-76
2022/05/20 05:57:29;;;;;;;;;;;;;;;21.62;30.52;98855.19;5026537;28;963;-76
2022/05/20 05:59:55;;;;;;;;;;;;;;;21.85;29.97;98852.41;4993779;28;1003;-76
2022/05/20 06:02:24;;;;;;;;;;;;;;;22.12;29.25;98848.81;4993994;28;1104;-76
2022/05/20 06:04:51;;;;;;;;;;;;;;;21.73;29.70;98850.16;4994067;28;924;-76
2022/05/20 06:07:17;;;;;;;;;;;;;;;21.66;29.67;98855.94;4994148;28;1011;-76
2022/05/20 06:09:42;;;;;;;;;;;;;;;21.56;29.75;98862.56;4994432;28;1122;-76
2022/05/20 06:12:08;;;;;;;;;;;;;;;21.63;29.61;98861.66;4997841;28;1918;-76
2022/05/20 06:14:33;;;;;;;;;;;;;;;21.36;30.12;98858.75;4997764;28;1426;-76
2022/05/20 06:16:59;;;;;;;;;;;;;;;21.39;30.17;98860.72;4997723;28;1042;-76
2022/05/20 06:19:24;;;;;;;;;;;;;;;21.55;29.58;98860.91;4997525;28;1001;-76
2022/05/20 06:21:50;;;;;;;;;;;;;;;21.75;29.79;98859.03;4965428;28;975;-77
2022/05/20 06:24:15;;;;;;;;;;;;;;;22.02;29.09;98861.09;4997518;28;1916;-76
2022/05/20 06:26:41;;;;;;;;;;;;;;;21.75;29.50;98846.91;4998026;28;963;-75
2022/05/20 06:29:06;;;;;;;;;;;;;;;21.62;29.58;98854.38;4997571;28;1020;-76
2022/05/20 06:31:32;;;;;;;;;;;;;;;21.59;29.46;98856.03;5029631;28;1902;-76
2022/05/20 06:33:58;;;;;;;;;;;;;;;21.60;29.53;98863.28;5039418;28;921;-76
2022/05/20 06:41:52;;;;;;;;;;;;;;;21.58;30.17;98865.75;5038967;28;1061;-74
2022/05/20 06:44:20;;;;;;;;;;;;;;;21.78;29.62;98875.19;5016747;28;1075;-74
2022/05/20 06:46:46;;;;;;;;;;;;;;;21.94;29.28;98879.44;5016637;28;974;-74
2022/05/20 06:49:12;;;;;;;;;;;;;;;21.74;29.40;98880.09;5016812;28;1154;-74
2022/05/20 06:51:37;;;;;;;;;;;;;;;21.58;29.96;98871.41;5016652;28;1902;-75
2022/05/20 06:54:06;;;;;;;;;;;;;;;21.56;29.85;98871.03;5017003;28;919;-75
2022/05/20 06:56:31;;;;;;;;;;;;;;;21.58;29.66;98882.75;5016766;28;1195;-75
2022/05/20 06:58:57;;;;;;;;;;;;;;;21.46;29.70;98874.81;5016652;28;1056;-75
2022/05/20 07:01:23;;;;;;;;;;;;;;;21.77;29.60;98873.59;5016602;28;1061;-76
2022/05/20 07:03:48;;;;;;;;;;;;;;;22.05;29.44;98880.09;5016510;28;960;-75
2022/05/20 07:06:14;;;;;;;;;;;;;;;21.82;29.21;98881.63;5016799;28;865;-76
2022/05/20 07:08:39;;;;;;;;;;;;;;;21.78;29.33;98882.88;5016946;28;888;-75
2022/05/20 07:11:06;;;;;;;;;;;;;;;21.62;29.92;98886.34;5016676;28;1973;-75
2022/05/20 07:13:32;;;;;;;;;;;;;;;21.55;29.60;98880.75;5016103;28;1005;-75
2022/05/20 07:15:58;;;;;;;;;;;;;;;21.44;29.80;98877.25;5033350;28;1097;-75
2022/05/20 07:18:24;;;;;;;;;;;;;;;21.45;29.75;98881.69;5038103;28;969;-75
2022/05/20 07:20:49;;;;;;;;;;;;;;;21.37;29.71;98883.00;5038088;28;939;-75
2022/05/20 07:23:15;;;;;;;;;;;;;;;21.62;30.22;98880.66;5038401;28;1135;-75
2022/05/20 07:25:40;;;;;;;;;;;;;;;21.94;29.19;98882.28;4996857;28;971;-75
2022/05/20 07:28:06;;;;;;;;;;;;;;;21.92;28.82;98885.53;4996776;28;928;-75
2022/05/20 07:30:31;;;;;;;;;;;;;;;21.72;29.37;98876.91;4996428;28;926;-76
2022/05/20 07:32:57;;;;;;;;;;;;;;;21.65;29.42;98865.66;4964127;28;2305;-75
2022/05/20 07:35:22;;;;;;;;;;;;;;;21.54;29.44;98865.78;4996728;28;992;-75
2022/05/20 07:37:48;;;;;;;;;;;;;;;21.56;29.53;98869.00;4996375;28;1168;-76
2022/05/20 07:40:14;;;;;;;;;;;;;;;21.61;29.22;98870.56;4996510;28;985;-75
2022/05/20 07:42:39;;;;;;;;;;;;;;;21.77;29.40;98862.25;4996329;28;1030;-75
2022/05/20 07:45:05;;;;;;;;;;;;;;;22.03;28.99;98868.38;4996095;28;968;-76
2022/05/20 07:47:31;;;;;;;;;;;;;;;22.18;28.91;98869.81;4980173;28;945;-76
2022/05/20 07:49:56;;;;;;;;;;;;;;;21.45;29.79;98859.84;4996473;28;967;-75
2022/05/20 07:55:06;;;;;;;;;;;;;;;21.55;29.44;98873.06;4976226;28;1102;-75
2022/05/20 07:57:32;;;;;;;;;;;;;;;21.41;29.80;98863.94;4976517;28;974;-75
2022/05/20 07:59:57;;;;;;;;;;;;;;;21.45;29.89;98874.00;4976354;28;1045;-75
2022/05/20 08:02:23;;;;;;;;;;;;;;;21.77;29.49;98873.59;4960446;28;938;-76
2022/05/20 08:04:57;;;;;;;;;;;;;;;22.03;29.15;98869.19;4960591;28;924;-75
2022/05/20 08:07:27;;;;;;;;;;;;;;;21.88;29.29;98864.94;4976284;28;881;-75
2022/05/20 08:09:53;;;;;;;;;;;;;;;21.62;29.47;98865.72;4960500;28;1012;-75
2022/05/20 08:12:18;;;;;;;;;;;;;;;21.65;29.31;98868.47;4976643;28;1981;-75
2022/05/20 08:14:44;;;;;;;;;;;;;;;21.66;29.59;98863.63;4976326;28;924;-75
2022/05/20 08:17:09;;;;;;;;;;;;;;;21.59;29.62;98861.69;4976309;28;945;-75
2022/05/20 08:19:35;;;;;;;;;;;;;;;21.49;29.72;98862.63;4976422;28;929;-75
2022/05/20 08:22:00;;;;;;;;;;;;;;;21.56;29.48;98856.88;4976409;28;1004;-75
2022/05/20 08:24:26;;;;;;;;;;;;;;;21.35;29.98;98857.13;4960058;28;955;-75
2022/05/20 08:26:51;;;;;;;;;;;;;;;21.86;29.15;98864.56;5034004;28;914;-75
2022/05/20 08:29:17;;;;;;;;;;;;;;;22.09;28.88;98866.66;5037108;28;901;-75
2022/05/20 08:31:43;;;;;;;;;;;;;;;21.61;29.49;98872.59;4995199;28;1993;-75
2022/05/20 08:34:08;;;;;;;;;;;;;;;21.57;29.52;98866.97;4994972;28;934;-75
2022/05/20 08:36:35;;;;;;;;;;;;;;;21.43;29.75;98864.31;4995148;28;1010;-75
2022/05/20 08:39:00;;;;;;;;;;;;;;;21.54;29.52;98870.66;4995268;28;956;-75
2022/05/20 08:41:27;;;;;;;;;;;;;;;21.40;30.01;98870.81;4978537;28;1434;-75
2022/05/20 08:43:52;;;;;;;;;;;;;;;21.58;29.62;98871.41;4995177;28;996;-75
2022/05/20 08:46:19;;;;;;;;;;;;;;;21.65;29.91;98862.81;4995440;28;1009;-75
2022/05/20 08:48:44;;;;;;;;;;;;;;;21.79;29.38;98859.78;4994933;28;940;-75
2022/05/20 08:51:10;;;;;;;;;;;;;;;21.93;28.95;98853.13;4995366;28;2005;-76
2022/05/20 08:53:36;;;;;;;;;;;;;;;21.70;29.48;98862.34;4975217;28;1032;-75
2022/05/20 08:56:03;;;;;;;;;;;;;;;21.59;29.61;98856.81;4975202;28;1052;-75
2022/05/20 08:58:28;;;;;;;;;;;;;;;21.53;29.63;98844.38;4975117;28;1203;-75
2022/05/20 09:00:54;;;;;;;;;;;;;;;21.35;29.92;98851.47;4975496;28;1006;-75
2022/05/20 09:03:20;;;;;;;;;;;;;;;21.51;29.88;98851.69;4989972;28;960;-75
2022/05/20 09:05:46;;;;;;;;;;;;;;;21.48;29.71;98852.53;4995072;28;988;-75
2022/05/20 09:08:14;;;;;;;;;;;;;;;21.61;29.76;98847.91;4994759;28;959;-75
2022/05/20 09:10:43;;;;;;;;;;;;;;;22.03;29.24;98851.38;4994699;28;1007;-75
2022/05/20 09:13:12;;;;;;;;;;;;;;;22.03;29.02;98840.03;4994340;28;1969;-75
2022/05/20 09:15:43;;;;;;;;;;;;;;;21.81;29.09;98840.34;4994546;28;982;-75
2022/05/20 09:18:11;;;;;;;;;;;;;;;21.57;29.53;98836.63;4994807;28;1055;-75
2022/05/20 09:21:03;;;;;;;;;;;;;;;21.51;29.78;98835.50;4975154;28;945;-75
2022/05/20 09:23:28;;;;;;;;;;;;;;;21.65;29.32;98831.66;4954000;29;1112;-75
2022/05/20 09:25:59;;;;;;;;;;;;;;;21.59;29.35;98830.53;4917664;29;983;-75
2022/05/20 09:28:30;;;;;;;;;;;;;;;21.43;29.52;98833.19;4917732;29;1013;-75
2022/05/20 09:31:02;;;;;;;;;;;;;;;21.87;29.15;98843.50;4917641;29;1907;-75
2022/05/20 09:33:28;;;;;;;;;;;;;;;22.08;28.88;98819.72;4933145;29;926;-75
2022/05/20 09:35:56;;;;;;;;;;;;;;;21.78;29.15;98827.03;4933829;29;948;-75
2022/05/20 09:38:41;;;;;;;;;;;;;;;21.78;28.94;98827.03;4917393;29;1066;-75
2022/05/20 09:41:10;;;;;;;;;;;;;;;21.69;29.07;98821.09;4917380;29;1434;-75
2022/05/20 09:43:37;;;;;;;;;;;;;;;21.37;29.61;98809.41;4917862;29;970;-75
2022/05/20 09:46:04;;;;;;;;;;;;;;;21.56;29.27;98803.88;4921614;29;972;-75
2022/05/20 09:48:33;;;;;;;;;;;;;;;21.61;29.52;98808.28;4936566;29;1112;-75
2022/05/20 09:51:16;;;;;;;;;;;;;;;21.97;29.05;98807.75;4921361;29;1907;-75
2022/05/20 09:53:43;;;;;;;;;;;;;;;22.16;28.73;98806.25;4921155;29;1109;-75
2022/05/20 09:56:12;;;;;;;;;;;;;;;21.77;29.39;98807.63;4921534;29;1003;-76
2022/05/20 09:58:37;;;;;;;;;;;;;;;21.48;29.58;98804.38;4949253;29;1018;-75
2022/05/20 10:01:10;;;;;;;;;;;;;;;21.59;29.39;98797.34;5025873;28;1161;-75
2022/05/20 10:03:40;;;;;;;;;;;;;;;21.61;29.40;98802.59;5039824;28;940;-75
2022/05/20 10:06:09;;;;;;;;;;;;;;;21.58;29.50;98783.63;5022565;28;1141;-75
2022/05/20 10:08:34;;;;;;;;;;;;;;;21.57;29.40;98784.84;5039605;28;916;-75
2022/05/20 10:11:15;;;;;;;;;;;;;;;21.48;29.46;98776.88;5039587;28;1969;-75
2022/05/20 10:13:43;;;;;;;;;;;;;;;21.42;29.69;98778.59;5039158;28;1008;-75
2022/05/20 10:16:18;;;;;;;;;;;;;;;21.95;29.02;98781.84;5039038;28;2026;-75
2022/05/20 10:18:47;;;;;;;;;;;;;;;22.12;28.62;98775.13;5039632;28;899;-75
2022/05/20 10:21:15;;;;;;;;;;;;;;;21.66;29.32;98770.97;5040046;28;999;-75
2022/05/20 10:23:48;;;;;;;;;;;;;;;21.71;29.23;98772.50;5017024;28;967;-75
2022/05/20 10:26:19;;;;;;;;;;;;;;;21.60;29.45;98772.66;5017472;28;925;-75
2022/05/20 10:34:38;;;;;;;;;;;;;;;21.61;29.76;98760.13;5003165;28;935;-75
2022/05/20 10:37:23;;;;;;;;;;;;;;;22.11;28.85;98762.19;5017021;28;1161;-75
2022/05/20 10:40:07;;;;;;;;;;;;;;;21.74;29.27;98752.63;5017196;28;1109;-75
2022/05/20 10:42:58;;;;;;;;;;;;;;;21.62;29.46;98753.22;5017175;28;1214;-75
2022/05/20 10:48:35;;;;;;;;;;;;;;;21.44;29.95;98752.66;4958642;29;1047;-76
2022/05/20 10:51:07;;;;;;;;;;;;;;;21.59;29.67;98745.56;4958612;28;1908;-75
2022/05/20 10:53:49;;;;;;;;;;;;;;;21.40;29.89;98740.59;4943080;28;956;-75
2022/05/20 10:56:33;;;;;;;;;;;;;;;21.94;29.11;98737.75;4957715;28;1066;-75
2022/05/20 10:59:17;;;;;;;;;;;;;;;22.08;28.77;98734.69;4958145;29;1058;-75
2022/05/20 11:01:43;;;;;;;;;;;;;;;21.64;29.47;98739.44;4958155;28;1029;-75
2022/05/20 11:04:18;;;;;;;;;;;;;;;21.53;29.67;98738.78;4958482;28;1131;-75
2022/05/20 11:06:49;;;;;;;;;;;;;;;21.45;29.59;98725.94;4958165;29;1120;-75
2022/05/20 11:09:27;;;;;;;;;;;;;;;21.47;29.57;98726.34;4958051;29;1159;-75
2022/05/20 11:11:59;;;;;;;;;;;;;;;21.52;29.51;98720.19;4958256;29;1973;-75
2022/05/20 11:14:31;;;;;;;;;;;;;;;21.56;29.60;98720.97;4919483;29;1063;-75
2022/05/20 11:16:56;;;;;;;;;;;;;;;21.47;29.77;98717.84;4882230;29;965;-75
2022/05/20 11:19:40;;;;;;;;;;;;;;;21.54;29.55;98709.25;4882263;29;1041;-75
2022/05/20 11:22:11;;;;;;;;;;;;;;;21.92;29.04;98720.41;4890490;29;946;-75
2022/05/20 11:24:39;;;;;;;;;;;;;;;21.82;28.95;98714.47;4900808;29;979;-75
2022/05/20 11:27:28;;;;;;;;;;;;;;;21.69;29.16;98707.78;4925429;29;1123;-75
2022/05/20 11:30:11;;;;;;;;;;;;;;;21.57;29.60;98708.41;4900496;29;1039;-75
2022/05/20 11:32:43;;;;;;;;;;;;;;;21.53;29.57;98710.47;4900623;29;1907;-75
2022/05/20 11:35:14;;;;;;;;;;;;;;;21.55;29.50;98708.00;4900664;29;1030;-75
2022/05/20 11:37:57;;;;;;;;;;;;;;;21.32;29.84;98698.25;4900404;29;955;-76
2022/05/20 11:40:31;;;;;;;;;;;;;;;21.50;29.67;98689.50;4900502;29;1026;-75
2022/05/20 11:43:05;;;;;;;;;;;;;;;21.52;29.50;98697.56;4881330;29;1156;-75
2022/05/20 11:45:36;;;;;;;;;;;;;;;21.62;29.84;98685.25;4892339;29;1016;-75
2022/05/20 11:48:11;;;;;;;;;;;;;;;22.12;28.44;98690.09;4900430;29;1011;-75
2022/05/20 11:50:36;;;;;;;;;;;;;;;22.00;28.62;98685.03;4900662;29;1051;-75
2022/05/20 11:53:08;;;;;;;;;;;;;;;21.69;29.48;98690.78;4900323;29;1907;-75
2022/05/20 11:55:50;;;;;;;;;;;;;;;21.63;29.30;98681.19;4881488;29;1081;-75
2022/05/20 11:58:21;;;;;;;;;;;;;;;21.58;29.56;98687.34;4881130;29;1122;-75
2022/05/20 12:00:48;;;;;;;;;;;;;;;21.51;29.56;98687.47;4881406;29;956;-75
2022/05/20 12:03:15;;;;;;;;;;;;;;;21.53;29.62;98682.16;4862450;29;997;-75
2022/05/20 12:05:44;;;;;;;;;;;;;;;21.54;29.34;98680.94;4862767;29;1065;-75
2022/05/20 12:08:29;;;;;;;;;;;;;;;21.51;29.51;98673.31;4889027;29;1049;-75
2022/05/20 12:10:55;;;;;;;;;;;;;;;21.67;29.50;98681.94;4900051;29;1039;-76
2022/05/20 12:13:22;;;;;;;;;;;;;;;22.05;28.90;98674.00;4918449;29;2071;-75
2022/05/20 12:15:48;;;;;;;;;;;;;;;22.09;28.62;98673.94;4862351;29;992;-75
2022/05/20 12:24:38;;;;;;;;;;;;;;;21.42;29.74;98659.69;4862139;29;1012;-75
2022/05/20 12:27:08;;;;;;;;;;;;;;;21.56;29.50;98650.97;4862484;29;1120;-75
2022/05/20 12:29:39;;;;;;;;;;;;;;;21.52;29.50;98657.91;4850548;29;1000;-75
2022/05/20 12:32:17;;;;;;;;;;;;;;;21.55;29.48;98651.38;4844087;29;1968;-75
2022/05/20 12:34:42;;;;;;;;;;;;;;;21.50;29.56;98646.19;4882569;29;972;-76
2022/05/20 12:37:08;;;;;;;;;;;;;;;22.03;28.76;98641.66;4899331;29;989;-75
2022/05/20 12:39:49;;;;;;;;;;;;;;;22.04;28.75;98637.59;4899204;29;1112;-75
2022/05/20 12:42:25;;;;;;;;;;;;;;;21.65;29.47;98639.06;4899103;29;1361;-76
2022/05/20 12:44:50;;;;;;;;;;;;;;;21.72;29.08;98630.47;4880265;29;1056;-75
2022/05/20 12:47:18;;;;;;;;;;;;;;;21.54;29.23;98629.97;4893563;29;1102;-75
2022/05/20 12:49:47;;;;;;;;;;;;;;;21.65;29.19;98632.59;4902195;29;1008;-76
2022/05/20 12:52:13;;;;;;;;;;;;;;;21.31;29.64;98630.75;4956307;29;1924;-75
2022/05/20 12:54:41;;;;;;;;;;;;;;;21.39;29.41;98625.75;4917928;29;980;-75
2022/05/20 12:57:08;;;;;;;;;;;;;;;21.46;29.29;98620.78;4917925;29;1047;-75
2022/05/20 12:59:33;;;;;;;;;;;;;;;21.66;28.99;98625.72;4918108;29;964;-75
2022/05/20 13:02:00;;;;;;;;;;;;;;;21.99;28.72;98626.75;4918058;29;1046;-75
2022/05/20 13:04:27;;;;;;;;;;;;;;;22.19;28.25;98621.97;4901957;29;1632;-75
2022/05/20 13:06:52;;;;;;;;;;;;;;;21.75;28.75;98615.44;4906996;29;1062;-75
2022/05/20 13:09:37;;;;;;;;;;;;;;;21.73;28.85;98617.91;4899321;29;1004;-75
2022/05/20 13:12:04;;;;;;;;;;;;;;;21.44;29.32;98608.28;4898917;29;1899;-75
2022/05/20 13:14:30;;;;;;;;;;;;;;;21.59;29.29;98604.78;4899097;29;1075;-75
2022/05/20 13:16:56;;;;;;;;;;;;;;;21.46;29.16;98600.19;4916938;29;957;-75
2022/05/20 13:19:37;;;;;;;;;;;;;;;21.55;29.10;98600.41;4917379;29;991;-75
2022/05/20 13:22:03;;;;;;;;;;;;;;;21.38;29.26;98601.50;4917844;29;975;-75
2022/05/20 13:24:29;;;;;;;;;;;;;;;21.49;29.51;98602.13;4917369;29;1521;-75
2022/05/20 13:27:13;;;;;;;;;;;;;;;21.55;29.27;98595.56;4898736;29;1015;-75
2022/05/20 13:29:39;;;;;;;;;;;;;;;21.98;28.44;98585.50;4898926;29;957;-75
2022/05/20 13:32:11;;;;;;;;;;;;;;;21.78;28.71;98591.13;4898518;29;1992;-75
2022/05/20 13:34:38;;;;;;;;;;;;;;;21.70;28.86;98584.75;4901583;29;1128;-75
2022/05/20 13:37:04;;;;;;;;;;;;;;;21.67;29.08;98579.97;4920420;29;946;-75
2022/05/20 13:39:29;;;;;;;;;;;;;;;21.60;29.06;98580.09;4936382;29;1262;-75
2022/05/20 13:41:55;;;;;;;;;;;;;;;21.57;29.15;98586.63;4936548;29;1258;-75
2022/05/20 13:44:20;;;;;;;;;;;;;;;21.57;28.96;98586.63;4946373;29;921;-75